Airfield :
LOGIN :

Register | Disclaimer

   EN    FR    IT 

 










Legend :    VFR   Marginal VFR   IFR   Intensive IFR   Very Intensive IFR
Visi :
Ceiling :
>= 8 km
>= 3000ft
5 to 8 km
1000 to 3000 ft
1500m to 5 km
500 to 1000 ft
800 to 1500m
200 to 500 ft
< 800m
< 200 ft
Symbols :   Thunderstorms  Fog  Heavy snow  Heavy precipitations  Wind > 20 kt
SIGMETs :     Misc.  Thunderstorms  Icing  Turbulence  Mountain Waves  Volcanic Ashes







- Airport Elevation : 218 ft


EGYD - RAF Cranwell

CURRENT METAR :
  • 161250Z AUTO 20014KT 9999 // FEW029/// SCT050/// 20/13 Q1013

EXPIRED METARs :
  • 161150Z 18013KT 9999 SCT022 SCT250 18/13 Q1013 RMK WHT
  • 161120Z 18013KT 9999 FEW018 SCT050 17/12 Q1013 TEMPO 6000 SHRA SCT025CB RMK BLU TEMPO WHT
  • 161050Z 19015KT 9999 SCT016 BKN030 BKN060 15/12 Q1014 WHT TEMPO 6000 RMK WHT TEMPO WHT

TAF TAF EGYD
Valid from the 16 at 12:00 until the 16 at 17:00 UTC


161025Z 1612/1617 19014KT 9999 SCT025
BECMG 1612/1614 20016G26KT
TEMPO 1612/1617 6000 SHRA BKN020
PROB30
TEMPO 1613/1617 4000 +SHRA BKN020CB
No reported NOTAMs for that airfield.



MET'MAP, your aeronautical weather chart ! - Copyright ORBIFLY December 2007 - Disclaimer

ORBIFLY MET'MAP TEAM :

Programming & Development : Alexandra Zaïnal
Concept & Development : Baudouin d'Aumeries
Co-Development & Prog : Marc-Olivier Méhu
Technical & hardware support : Manuel Goepfert

Contact : metmap@orbifly.com




SOURCES & CREDITS :

   NOAA